Time;durP1;ratioP1;P1;durP2;ratioP2;P2;SDS_P1;SDS_P2;PMS_P1;PMS_P2;Temp;Humidity;BMP_temperature;BMP_pressure;BME280_temperature;BME280_humidity;BME280_pressure;Samples;Min_cycle;Max_cycle;Signal;HPM_P1;HPM_P2
2023/06/06 00:00:09;;;;;;;8.55;5.18;;;;;;;;;;5073175;28;20095;-77
2023/06/06 00:02:46;;;;;;;8.68;5.80;;;;;;;;;;5092852;28;20036;-78
2023/06/06 00:05:16;;;;;;;7.35;5.25;;;;;;;;;;5113769;28;20018;-76
2023/06/06 00:07:43;;;;;;;8.70;5.90;;;;;;;;;;5112666;28;20019;-77
2023/06/06 00:10:09;;;;;;;7.25;5.75;;;;;;;;;;5113757;28;20024;-76
2023/06/06 00:12:36;;;;;;;9.55;6.88;;;;;;;;;;5096108;28;20039;-76
2023/06/06 00:15:03;;;;;;;9.38;6.30;;;;;;;;;;5096085;28;20030;-77
2023/06/06 00:17:28;;;;;;;8.30;6.50;;;;;;;;;;5114544;28;20028;-77
2023/06/06 00:19:54;;;;;;;7.53;6.05;;;;;;;;;;5114085;28;20088;-77
2023/06/06 00:22:28;;;;;;;7.43;6.25;;;;;;;;;;5114550;28;20461;-78
2023/06/06 00:25:03;;;;;;;10.40;6.88;;;;;;;;;;5114088;28;20418;-77
2023/06/06 00:27:37;;;;;;;10.52;6.20;;;;;;;;;;5114470;28;20019;-77
2023/06/06 00:30:06;;;;;;;10.38;6.95;;;;;;;;;;5114686;28;20040;-77
2023/06/06 00:32:32;;;;;;;8.20;6.80;;;;;;;;;;5114635;28;20020;-78
2023/06/06 00:35:14;;;;;;;10.32;6.93;;;;;;;;;;5078778;28;20067;-75
2023/06/06 00:37:41;;;;;;;11.00;7.68;;;;;;;;;;5113849;28;20012;-77
2023/06/06 00:40:09;;;;;;;10.90;6.85;;;;;;;;;;5113411;28;20039;-75
2023/06/06 00:42:35;;;;;;;9.85;7.13;;;;;;;;;;5113804;28;20080;-75
2023/06/06 00:45:01;;;;;;;12.93;8.32;;;;;;;;;;5113749;28;20034;-76
2023/06/06 00:47:26;;;;;;;10.75;7.03;;;;;;;;;;5095328;28;20024;-76
2023/06/06 00:49:52;;;;;;;10.00;7.78;;;;;;;;;;5095365;28;20015;-78
2023/06/06 00:52:20;;;;;;;9.40;7.47;;;;;;;;;;5114906;28;20031;-76
2023/06/06 00:54:45;;;;;;;10.93;7.20;;;;;;;;;;5114159;28;20015;-76
2023/06/06 00:57:26;;;;;;;11.75;8.15;;;;;;;;;;5096853;28;20027;-76
2023/06/06 00:59:53;;;;;;;9.70;7.68;;;;;;;;;;5114979;28;20495;-78
2023/06/06 01:02:20;;;;;;;11.35;8.70;;;;;;;;;;5092589;28;20048;-77
2023/06/06 01:04:46;;;;;;;9.77;7.50;;;;;;;;;;5094341;28;20012;-77
2023/06/06 01:07:17;;;;;;;10.65;7.38;;;;;;;;;;5094199;28;20012;-76
2023/06/06 01:09:45;;;;;;;9.53;7.20;;;;;;;;;;5094072;28;20063;-76
2023/06/06 01:12:12;;;;;;;9.18;7.65;;;;;;;;;;5092335;28;20384;-77
2023/06/06 01:14:51;;;;;;;10.88;7.57;;;;;;;;;;5094046;28;20024;-77
2023/06/06 01:17:19;;;;;;;9.70;7.47;;;;;;;;;;5093997;28;20095;-77
2023/06/06 01:19:50;;;;;;;10.88;7.65;;;;;;;;;;5095344;28;20024;-78
2023/06/06 01:22:17;;;;;;;9.48;8.20;;;;;;;;;;5095472;28;20046;-77
2023/06/06 01:24:58;;;;;;;8.98;7.60;;;;;;;;;;5095464;28;20051;-76
2023/06/06 01:27:33;;;;;;;9.65;7.95;;;;;;;;;;5096913;28;20323;-78
2023/06/06 01:30:01;;;;;;;9.82;7.38;;;;;;;;;;5097067;28;20035;-76
2023/06/06 01:32:55;;;;;;;10.98;7.75;;;;;;;;;;5097028;28;20110;-77
2023/06/06 01:35:39;;;;;;;10.57;8.02;;;;;;;;;;5074229;28;20097;-78
2023/06/06 01:38:09;;;;;;;10.15;7.53;;;;;;;;;;5097315;28;20040;-77
2023/06/06 01:40:35;;;;;;;9.50;7.68;;;;;;;;;;5096719;28;20384;-77
2023/06/06 01:43:10;;;;;;;11.18;8.20;;;;;;;;;;5095542;28;20385;-77
2023/06/06 01:45:42;;;;;;;10.10;8.13;;;;;;;;;;5096072;28;20028;-76
2023/06/06 01:48:08;;;;;;;11.23;8.57;;;;;;;;;;5095808;28;20020;-77
2023/06/06 01:50:33;;;;;;;11.68;8.60;;;;;;;;;;5094742;28;20081;-77
2023/06/06 01:53:08;;;;;;;10.85;7.80;;;;;;;;;;5095798;28;20381;-78
2023/06/06 01:55:36;;;;;;;9.88;8.38;;;;;;;;;;5095597;28;20093;-77
2023/06/06 01:58:03;;;;;;;8.35;7.50;;;;;;;;;;5097482;28;20422;-76
2023/06/06 02:00:30;;;;;;;12.05;9.40;;;;;;;;;;5097478;28;20462;-76
2023/06/06 02:02:55;;;;;;;10.13;8.38;;;;;;;;;;5112875;28;20036;-78
2023/06/06 02:05:22;;;;;;;13.25;8.13;;;;;;;;;;5100434;28;20107;-78
2023/06/06 02:07:49;;;;;;;12.98;9.07;;;;;;;;;;5117519;28;20051;-78
2023/06/06 02:10:15;;;;;;;13.55;8.85;;;;;;;;;;5118881;28;20629;-78
2023/06/06 02:12:42;;;;;;;14.68;9.00;;;;;;;;;;5099026;28;20053;-78
2023/06/06 02:15:09;;;;;;;13.05;9.13;;;;;;;;;;5098764;28;20076;-77
2023/06/06 02:17:36;;;;;;;11.43;8.90;;;;;;;;;;5117086;28;20024;-78
2023/06/06 02:20:04;;;;;;;9.70;8.65;;;;;;;;;;5098527;28;20019;-77
2023/06/06 02:22:29;;;;;;;14.60;9.77;;;;;;;;;;5116792;28;20012;-76
2023/06/06 02:24:54;;;;;;;10.50;8.70;;;;;;;;;;5098302;28;20076;-79
2023/06/06 02:27:21;;;;;;;10.80;8.93;;;;;;;;;;5116849;28;20447;-78
2023/06/06 02:29:47;;;;;;;11.73;9.38;;;;;;;;;;5116815;28;20261;-78
2023/06/06 02:32:13;;;;;;;12.77;8.77;;;;;;;;;;5116161;28;20098;-78
2023/06/06 02:34:40;;;;;;;20.48;11.90;;;;;;;;;;5117425;28;20026;-77
2023/06/06 02:37:29;;;;;;;17.30;12.73;;;;;;;;;;5116553;28;20063;-77
2023/06/06 02:40:10;;;;;;;19.08;13.68;;;;;;;;;;5118310;28;20023;-77
2023/06/06 02:42:43;;;;;;;19.40;14.95;;;;;;;;;;5117071;28;20024;-77
2023/06/06 02:45:10;;;;;;;17.98;14.43;;;;;;;;;;5116580;28;20135;-78
2023/06/06 02:47:35;;;;;;;23.40;16.38;;;;;;;;;;5116436;28;20427;-76
2023/06/06 02:50:01;;;;;;;19.98;14.82;;;;;;;;;;5116267;28;20023;-76
2023/06/06 02:52:28;;;;;;;19.63;14.57;;;;;;;;;;5081109;28;20023;-78
2023/06/06 02:54:54;;;;;;;23.02;14.73;;;;;;;;;;5116275;28;20020;-77
2023/06/06 02:57:21;;;;;;;17.75;13.90;;;;;;;;;;5116366;28;20412;-75
2023/06/06 02:59:47;;;;;;;19.55;13.82;;;;;;;;;;5115814;28;20376;-78
2023/06/06 03:02:18;;;;;;;18.15;12.80;;;;;;;;;;5115545;28;20035;-77
2023/06/06 03:04:43;;;;;;;15.18;11.25;;;;;;;;;;5117548;28;20040;-78
2023/06/06 03:07:10;;;;;;;13.05;11.52;;;;;;;;;;5098842;28;20024;-77
2023/06/06 03:09:37;;;;;;;14.95;11.70;;;;;;;;;;5098172;28;20414;-77
2023/06/06 03:12:03;;;;;;;17.40;12.38;;;;;;;;;;5115876;28;20023;-77
2023/06/06 03:14:29;;;;;;;15.88;12.63;;;;;;;;;;5115788;28;20020;-77
2023/06/06 03:16:58;;;;;;;15.77;11.80;;;;;;;;;;5115674;28;20034;-77
2023/06/06 03:19:24;;;;;;;14.02;10.98;;;;;;;;;;5115546;28;20465;-76
2023/06/06 03:21:59;;;;;;;18.55;11.05;;;;;;;;;;5097369;28;20472;-78
2023/06/06 03:24:28;;;;;;;15.07;10.45;;;;;;;;;;5115746;28;20394;-77
2023/06/06 03:27:03;;;;;;;13.88;11.25;;;;;;;;;;5115704;28;20027;-76
2023/06/06 03:29:30;;;;;;;13.85;10.68;;;;;;;;;;5115203;28;20068;-78
2023/06/06 03:31:56;;;;;;;12.85;10.55;;;;;;;;;;5096574;28;20035;-78
2023/06/06 03:34:25;;;;;;;15.65;11.38;;;;;;;;;;5096800;28;20465;-79
2023/06/06 03:36:52;;;;;;;13.48;9.60;;;;;;;;;;5115463;28;20061;-78
2023/06/06 03:39:19;;;;;;;12.27;9.05;;;;;;;;;;5115225;28;20020;-77
2023/06/06 03:41:47;;;;;;;11.10;8.55;;;;;;;;;;5097125;28;20463;-78
2023/06/06 03:44:14;;;;;;;14.32;8.88;;;;;;;;;;5113385;28;20062;-78
2023/06/06 03:46:39;;;;;;;11.57;9.90;;;;;;;;;;5096625;28;20007;-77
2023/06/06 03:49:07;;;;;;;12.25;9.15;;;;;;;;;;5114961;28;20022;-78
2023/06/06 03:51:32;;;;;;;12.38;9.55;;;;;;;;;;5115100;28;20039;-78
2023/06/06 03:53:58;;;;;;;14.47;8.77;;;;;;;;;;5115007;28;20116;-78
2023/06/06 03:56:24;;;;;;;11.00;8.07;;;;;;;;;;5096381;28;20269;-78
2023/06/06 03:58:50;;;;;;;11.80;8.70;;;;;;;;;;5095986;28;20015;-76
2023/06/06 04:01:15;;;;;;;10.82;8.40;;;;;;;;;;5113798;28;20033;-79
2023/06/06 04:03:42;;;;;;;10.65;8.25;;;;;;;;;;5114600;28;20476;-78
2023/06/06 04:06:08;;;;;;;10.50;7.55;;;;;;;;;;5114350;28;20024;-78
2023/06/06 04:08:33;;;;;;;10.43;7.82;;;;;;;;;;5114644;28;20089;-77
2023/06/06 04:10:58;;;;;;;8.27;6.85;;;;;;;;;;5114602;28;20503;-77
2023/06/06 04:13:23;;;;;;;10.23;7.53;;;;;;;;;;5114533;28;20481;-77
2023/06/06 04:15:49;;;;;;;10.33;7.57;;;;;;;;;;5114711;28;20257;-78
2023/06/06 04:18:14;;;;;;;11.82;7.60;;;;;;;;;;5114264;28;20299;-77
2023/06/06 04:20:39;;;;;;;9.73;7.28;;;;;;;;;;5095921;28;20050;-77
2023/06/06 04:23:05;;;;;;;10.80;8.13;;;;;;;;;;5114301;28;20364;-78
2023/06/06 04:25:30;;;;;;;11.40;7.97;;;;;;;;;;5114152;28;20265;-77
2023/06/06 04:27:55;;;;;;;11.43;8.87;;;;;;;;;;5114398;28;20048;-78
2023/06/06 04:30:22;;;;;;;11.27;8.02;;;;;;;;;;5113853;28;20317;-78
2023/06/06 04:32:48;;;;;;;9.77;7.97;;;;;;;;;;5114012;28;20030;-77
2023/06/06 04:35:14;;;;;;;10.98;8.48;;;;;;;;;;5114293;28;20015;-80
2023/06/06 04:37:40;;;;;;;13.50;9.70;;;;;;;;;;5113916;28;20020;-80
2023/06/06 04:40:06;;;;;;;10.88;8.60;;;;;;;;;;5113565;28;20019;-78
2023/06/06 04:42:34;;;;;;;16.20;10.48;;;;;;;;;;5113940;28;20024;-79
2023/06/06 04:45:02;;;;;;;12.95;9.68;;;;;;;;;;5113886;28;20372;-79
2023/06/06 04:47:28;;;;;;;13.45;10.10;;;;;;;;;;5114364;28;20024;-85
2023/06/06 04:49:54;;;;;;;15.65;10.43;;;;;;;;;;5114126;28;20043;-79
2023/06/06 04:52:19;;;;;;;15.30;11.30;;;;;;;;;;5113841;28;20023;-78
2023/06/06 04:54:45;;;;;;;13.27;10.88;;;;;;;;;;5113395;28;20016;-75
2023/06/06 04:57:17;;;;;;;13.73;11.63;;;;;;;;;;5114492;28;20074;-74
2023/06/06 04:59:52;;;;;;;15.25;11.38;;;;;;;;;;5113934;28;20023;-73
2023/06/06 05:02:20;;;;;;;13.63;11.20;;;;;;;;;;5113503;28;20062;-73
2023/06/06 05:04:47;;;;;;;15.10;11.52;;;;;;;;;;5113486;28;20045;-72
2023/06/06 05:07:12;;;;;;;14.20;12.07;;;;;;;;;;5113685;28;20038;-73
2023/06/06 05:09:37;;;;;;;14.05;10.88;;;;;;;;;;5113458;28;20437;-72
2023/06/06 05:12:05;;;;;;;16.67;12.40;;;;;;;;;;5113906;28;20015;-74
2023/06/06 05:14:30;;;;;;;16.48;11.85;;;;;;;;;;5113899;28;20269;-72
2023/06/06 05:16:57;;;;;;;14.43;11.73;;;;;;;;;;5095260;28;20023;-74
2023/06/06 05:19:22;;;;;;;14.15;10.95;;;;;;;;;;5113765;28;20062;-74
2023/06/06 05:21:48;;;;;;;15.55;10.75;;;;;;;;;;5113706;28;20089;-74
2023/06/06 05:24:14;;;;;;;14.48;11.07;;;;;;;;;;5112678;28;20023;-73
2023/06/06 05:26:41;;;;;;;12.90;11.00;;;;;;;;;;5112061;28;20357;-74
2023/06/06 05:29:07;;;;;;;14.57;11.18;;;;;;;;;;5093401;28;20044;-72
2023/06/06 05:31:34;;;;;;;15.57;11.48;;;;;;;;;;5111312;28;20038;-73
2023/06/06 05:34:05;;;;;;;14.55;11.25;;;;;;;;;;5111496;28;20019;-71
2023/06/06 05:36:30;;;;;;;13.00;10.73;;;;;;;;;;5111264;28;20037;-74
2023/06/06 05:38:56;;;;;;;13.48;11.10;;;;;;;;;;5093049;28;20027;-73
2023/06/06 05:41:30;;;;;;;12.13;10.10;;;;;;;;;;5093617;28;20073;-72
2023/06/06 05:43:57;;;;;;;14.23;11.50;;;;;;;;;;5111889;28;20465;-73
2023/06/06 05:46:28;;;;;;;14.23;11.35;;;;;;;;;;5111883;28;20464;-74
2023/06/06 05:48:54;;;;;;;14.57;10.65;;;;;;;;;;5112753;28;20061;-72
2023/06/06 05:51:20;;;;;;;12.80;10.32;;;;;;;;;;5113025;28;20019;-73
2023/06/06 05:53:47;;;;;;;11.52;9.63;;;;;;;;;;5112926;28;20436;-74
2023/06/06 05:56:14;;;;;;;14.63;9.48;;;;;;;;;;5111964;28;20197;-74
2023/06/06 05:58:39;;;;;;;11.02;8.48;;;;;;;;;;5113261;28;20023;-73
2023/06/06 06:01:06;;;;;;;11.40;8.68;;;;;;;;;;5113120;28;20020;-74
2023/06/06 06:03:36;;;;;;;13.68;8.63;;;;;;;;;;5073698;28;20179;-73
2023/06/06 06:06:10;;;;;;;8.82;7.35;;;;;;;;;;5071877;28;20024;-73
2023/06/06 06:08:37;;;;;;;12.50;8.93;;;;;;;;;;5076020;28;20022;-74
2023/06/06 06:11:03;;;;;;;12.80;10.02;;;;;;;;;;5076374;28;20012;-74
2023/06/06 06:13:29;;;;;;;11.27;7.80;;;;;;;;;;5076229;28;20032;-74
2023/06/06 06:15:55;;;;;;;8.95;8.10;;;;;;;;;;5075998;28;20025;-73
2023/06/06 06:18:21;;;;;;;11.50;7.80;;;;;;;;;;5074599;28;20111;-74
2023/06/06 06:20:47;;;;;;;12.30;8.10;;;;;;;;;;5076134;28;20350;-74
2023/06/06 06:23:12;;;;;;;8.63;7.53;;;;;;;;;;5075622;28;20373;-74
2023/06/06 06:25:39;;;;;;;9.47;7.33;;;;;;;;;;5076133;28;20017;-74
2023/06/06 06:28:17;;;;;;;9.98;7.30;;;;;;;;;;5075944;28;20785;-74
2023/06/06 06:30:43;;;;;;;11.27;7.63;;;;;;;;;;5074302;28;20021;-73
2023/06/06 06:33:11;;;;;;;8.20;6.97;;;;;;;;;;5075530;28;20133;-73
2023/06/06 06:35:37;;;;;;;11.85;8.15;;;;;;;;;;5075674;28;20025;-74
2023/06/06 06:38:04;;;;;;;11.07;8.52;;;;;;;;;;5076032;28;20012;-74
2023/06/06 06:40:30;;;;;;;10.10;7.30;;;;;;;;;;5075449;28;20358;-74
2023/06/06 06:42:56;;;;;;;11.65;7.03;;;;;;;;;;5075680;28;20025;-73
2023/06/06 06:45:23;;;;;;;11.45;7.78;;;;;;;;;;5074495;28;20020;-73
2023/06/06 06:47:50;;;;;;;10.07;7.55;;;;;;;;;;5075721;28;20020;-74
2023/06/06 06:50:16;;;;;;;11.23;7.47;;;;;;;;;;5075588;28;20024;-74
2023/06/06 06:52:43;;;;;;;9.32;7.20;;;;;;;;;;5075216;28;20457;-75
2023/06/06 06:55:10;;;;;;;10.95;7.72;;;;;;;;;;5075170;28;20023;-73
2023/06/06 06:57:39;;;;;;;9.05;6.65;;;;;;;;;;5075379;28;20025;-74
2023/06/06 07:00:15;;;;;;;11.38;6.78;;;;;;;;;;5074923;28;20497;-76
2023/06/06 07:02:46;;;;;;;9.25;6.68;;;;;;;;;;5073913;28;20056;-74
2023/06/06 07:05:14;;;;;;;7.18;6.22;;;;;;;;;;5075380;28;20017;-74
2023/06/06 07:07:48;;;;;;;8.52;6.57;;;;;;;;;;5075360;28;20408;-75
2023/06/06 07:10:16;;;;;;;10.75;5.97;;;;;;;;;;5073699;28;20533;-73
2023/06/06 07:12:45;;;;;;;6.72;5.90;;;;;;;;;;5074003;28;20024;-73
2023/06/06 07:15:11;;;;;;;10.50;5.95;;;;;;;;;;5073498;28;20049;-76
2023/06/06 07:17:37;;;;;;;6.65;4.93;;;;;;;;;;5074767;28;20077;-73
2023/06/06 07:20:05;;;;;;;8.35;6.20;;;;;;;;;;5075295;28;20031;-73
2023/06/06 07:22:37;;;;;;;9.98;6.05;;;;;;;;;;5074791;28;20025;-74
2023/06/06 07:25:04;;;;;;;7.50;4.80;;;;;;;;;;5074583;28;20044;-74
2023/06/06 07:27:35;;;;;;;7.60;5.18;;;;;;;;;;5073596;28;20023;-73
2023/06/06 07:30:06;;;;;;;7.10;5.85;;;;;;;;;;5074888;28;20380;-72
2023/06/06 07:32:33;;;;;;;7.47;4.82;;;;;;;;;;5074430;28;20021;-78
2023/06/06 07:34:59;;;;;;;7.75;5.18;;;;;;;;;;5069484;28;20595;-73
2023/06/06 07:37:27;;;;;;;8.63;5.35;;;;;;;;;;5054685;28;20017;-75
2023/06/06 07:39:52;;;;;;;9.95;5.28;;;;;;;;;;5054978;28;20115;-75
2023/06/06 07:42:20;;;;;;;8.55;5.70;;;;;;;;;;5054326;28;20100;-75
2023/06/06 07:44:51;;;;;;;7.22;5.25;;;;;;;;;;5054522;28;20028;-76
2023/06/06 07:47:16;;;;;;;7.67;5.23;;;;;;;;;;5054282;28;20575;-76
2023/06/06 07:49:43;;;;;;;6.73;4.90;;;;;;;;;;5054308;28;20299;-76
2023/06/06 07:52:11;;;;;;;6.40;5.65;;;;;;;;;;5053961;28;20788;-75
2023/06/06 07:54:37;;;;;;;7.55;5.07;;;;;;;;;;5053599;28;20078;-73
2023/06/06 07:57:05;;;;;;;8.13;5.00;;;;;;;;;;5054116;28;20453;-75
2023/06/06 07:59:31;;;;;;;6.03;5.25;;;;;;;;;;5052713;28;20489;-75
2023/06/06 08:01:58;;;;;;;6.82;5.55;;;;;;;;;;5062202;28;20040;-74
2023/06/06 08:04:24;;;;;;;8.02;5.80;;;;;;;;;;5094082;28;20016;-71
2023/06/06 08:06:51;;;;;;;7.95;5.15;;;;;;;;;;5075691;28;20012;-73
2023/06/06 08:09:16;;;;;;;6.90;5.03;;;;;;;;;;5075713;28;20027;-72
2023/06/06 08:11:42;;;;;;;9.75;6.10;;;;;;;;;;5094037;28;20024;-73
2023/06/06 08:14:08;;;;;;;10.05;5.93;;;;;;;;;;5093890;28;20018;-72
2023/06/06 08:16:37;;;;;;;8.85;6.13;;;;;;;;;;5094088;28;20080;-73
2023/06/06 08:19:04;;;;;;;10.00;6.00;;;;;;;;;;5093919;28;20016;-73
2023/06/06 08:21:29;;;;;;;7.88;5.72;;;;;;;;;;5093797;28;20457;-74
2023/06/06 08:23:55;;;;;;;9.07;5.07;;;;;;;;;;5093871;28;20081;-73
2023/06/06 08:26:25;;;;;;;6.38;5.70;;;;;;;;;;5093709;28;20107;-73
2023/06/06 08:28:53;;;;;;;8.52;5.93;;;;;;;;;;5093100;28;20096;-73
2023/06/06 08:31:20;;;;;;;5.32;4.70;;;;;;;;;;5093621;28;20027;-75
2023/06/06 08:33:47;;;;;;;6.20;5.43;;;;;;;;;;5093766;28;20496;-75
2023/06/06 08:36:13;;;;;;;7.30;5.97;;;;;;;;;;5075855;28;20039;-74
2023/06/06 08:38:39;;;;;;;10.17;5.60;;;;;;;;;;5093640;28;20024;-74
2023/06/06 08:41:05;;;;;;;9.10;5.03;;;;;;;;;;5093635;28;20119;-77
2023/06/06 08:43:36;;;;;;;7.20;4.82;;;;;;;;;;5093587;28;20091;-75
2023/06/06 08:46:02;;;;;;;5.45;4.85;;;;;;;;;;5093355;28;20062;-73
2023/06/06 08:48:28;;;;;;;6.50;4.90;;;;;;;;;;5093633;28;20531;-75
2023/06/06 08:50:56;;;;;;;6.18;4.57;;;;;;;;;;5093318;28;20012;-74
2023/06/06 08:53:23;;;;;;;9.85;6.15;;;;;;;;;;5075215;28;20054;-75
2023/06/06 08:55:49;;;;;;;7.57;5.15;;;;;;;;;;5093100;28;20514;-74
2023/06/06 08:58:16;;;;;;;9.15;5.07;;;;;;;;;;5093266;28;20016;-75
2023/06/06 09:00:41;;;;;;;9.75;4.50;;;;;;;;;;5093217;28;20020;-75
2023/06/06 09:03:09;;;;;;;6.47;4.30;;;;;;;;;;5058121;28;20048;-75
2023/06/06 09:05:38;;;;;;;4.97;4.47;;;;;;;;;;5051713;28;20276;-74
2023/06/06 09:08:05;;;;;;;9.93;4.75;;;;;;;;;;5052902;28;20017;-75
2023/06/06 09:10:31;;;;;;;6.65;4.75;;;;;;;;;;5051772;28;20379;-75
2023/06/06 09:12:56;;;;;;;4.43;3.75;;;;;;;;;;5053063;28;20082;-74
2023/06/06 09:15:25;;;;;;;6.20;4.63;;;;;;;;;;5053089;28;20366;-74
2023/06/06 09:17:52;;;;;;;7.13;4.88;;;;;;;;;;5053182;28;20087;-75
2023/06/06 09:20:19;;;;;;;8.27;4.30;;;;;;;;;;5051528;28;20453;-72
2023/06/06 09:22:57;;;;;;;5.78;4.22;;;;;;;;;;5052996;28;20024;-72
2023/06/06 09:25:23;;;;;;;6.00;4.35;;;;;;;;;;5052748;28;20024;-73
2023/06/06 09:27:57;;;;;;;7.70;4.07;;;;;;;;;;5051505;28;20107;-76
2023/06/06 09:30:24;;;;;;;6.90;4.28;;;;;;;;;;5051515;28;20478;-77
2023/06/06 09:33:01;;;;;;;7.55;4.32;;;;;;;;;;5051656;28;20052;-76
2023/06/06 09:35:34;;;;;;;6.90;3.97;;;;;;;;;;5051659;28;20067;-76
2023/06/06 09:38:21;;;;;;;5.93;4.35;;;;;;;;;;5053056;28;20032;-76
2023/06/06 09:40:50;;;;;;;8.98;3.65;;;;;;;;;;5054325;28;20032;-76
2023/06/06 09:43:30;;;;;;;7.75;4.28;;;;;;;;;;5056756;28;20076;-77
2023/06/06 09:46:04;;;;;;;5.15;3.83;;;;;;;;;;5056941;28;20466;-75
2023/06/06 09:48:30;;;;;;;9.65;3.97;;;;;;;;;;5056840;28;20023;-76
2023/06/06 09:50:57;;;;;;;4.90;3.60;;;;;;;;;;5056720;28;20048;-74
2023/06/06 09:53:24;;;;;;;8.20;4.10;;;;;;;;;;5057041;28;20029;-74
2023/06/06 09:55:51;;;;;;;3.72;3.33;;;;;;;;;;5038946;28;20029;-74
2023/06/06 09:58:20;;;;;;;4.50;3.80;;;;;;;;;;5056950;28;20031;-74
2023/06/06 10:00:46;;;;;;;6.20;3.35;;;;;;;;;;5057274;28;20066;-74
2023/06/06 10:03:18;;;;;;;7.57;3.80;;;;;;;;;;5084685;28;20510;-73
2023/06/06 10:05:48;;;;;;;6.53;3.80;;;;;;;;;;5096699;28;20012;-76
2023/06/06 10:08:14;;;;;;;6.10;3.60;;;;;;;;;;5097041;28;20066;-74
2023/06/06 10:10:43;;;;;;;4.65;3.50;;;;;;;;;;5096785;28;20097;-75
2023/06/06 10:13:19;;;;;;;4.35;3.92;;;;;;;;;;5096626;28;20028;-75
2023/06/06 10:15:46;;;;;;;7.18;3.30;;;;;;;;;;5096577;28;20016;-73
2023/06/06 10:18:13;;;;;;;6.60;3.40;;;;;;;;;;5096245;28;20016;-72
2023/06/06 10:20:42;;;;;;;6.75;3.67;;;;;;;;;;5096491;28;20024;-74
2023/06/06 10:23:08;;;;;;;4.90;3.78;;;;;;;;;;5096544;28;20019;-72
2023/06/06 10:25:36;;;;;;;4.90;3.05;;;;;;;;;;5096033;28;20016;-72
2023/06/06 10:28:21;;;;;;;9.93;3.55;;;;;;;;;;5096195;28;20016;-72
2023/06/06 10:31:11;;;;;;;6.28;3.60;;;;;;;;;;5096299;28;20024;-72
2023/06/06 10:33:45;;;;;;;6.35;3.38;;;;;;;;;;5096327;28;20035;-74
2023/06/06 10:36:17;;;;;;;6.90;3.70;;;;;;;;;;5078156;28;20048;-74
2023/06/06 10:39:03;;;;;;;5.70;3.22;;;;;;;;;;5077868;28;20043;-74
2023/06/06 10:41:41;;;;;;;7.38;4.03;;;;;;;;;;5095764;28;20048;-74
2023/06/06 10:44:08;;;;;;;3.80;2.85;;;;;;;;;;5078079;28;20066;-74
2023/06/06 10:46:36;;;;;;;8.43;4.20;;;;;;;;;;5077746;28;20411;-73
2023/06/06 10:49:03;;;;;;;11.73;3.80;;;;;;;;;;5095948;28;20008;-74
2023/06/06 10:51:30;;;;;;;13.02;3.80;;;;;;;;;;5095260;28;20472;-73
2023/06/06 10:54:31;;;;;;;6.50;3.47;;;;;;;;;;5095850;28;20081;-74
2023/06/06 10:57:02;;;;;;;5.45;3.53;;;;;;;;;;4993871;28;20053;-73
2023/06/06 10:59:27;;;;;;;;;;;;;;;;;;5077352;28;20056;-72
2023/06/06 11:01:53;;;;;;;8.70;3.50;;;;;;;;;;5094289;28;20400;-74
2023/06/06 11:04:31;;;;;;;4.00;3.28;;;;;;;;;;5076667;28;20020;-74
2023/06/06 11:06:59;;;;;;;8.02;3.30;;;;;;;;;;5093509;28;20469;-73
2023/06/06 11:09:28;;;;;;;10.43;3.58;;;;;;;;;;5093194;28;20403;-73
2023/06/06 11:12:31;;;;;;;6.10;3.35;;;;;;;;;;5075036;28;20048;-73
2023/06/06 11:14:56;;;;;;;6.90;3.80;;;;;;;;;;5075944;28;20020;-73
2023/06/06 11:17:43;;;;;;;5.57;3.22;;;;;;;;;;5094200;28;20089;-75
2023/06/06 11:20:17;;;;;;;6.45;3.58;;;;;;;;;;5075850;28;20031;-73
2023/06/06 11:22:49;;;;;;;6.20;3.63;;;;;;;;;;5092886;28;20032;-73
2023/06/06 11:25:23;;;;;;;4.80;3.08;;;;;;;;;;5093986;28;20055;-74
2023/06/06 11:27:49;;;;;;;5.88;3.15;;;;;;;;;;5075900;28;20479;-73
2023/06/06 11:30:15;;;;;;;6.22;3.38;;;;;;;;;;5075805;28;20032;-73
2023/06/06 11:32:41;;;;;;;5.00;3.38;;;;;;;;;;5093871;28;20107;-73
2023/06/06 11:35:07;;;;;;;6.18;3.65;;;;;;;;;;5095281;28;20116;-73
2023/06/06 11:37:34;;;;;;;4.95;3.42;;;;;;;;;;5095143;28;20377;-73
2023/06/06 11:40:08;;;;;;;3.40;2.80;;;;;;;;;;5077316;28;20107;-74
2023/06/06 11:42:35;;;;;;;5.25;2.47;;;;;;;;;;5094770;28;20299;-74
2023/06/06 11:45:04;;;;;;;15.60;3.97;;;;;;;;;;5094723;28;20020;-73
2023/06/06 11:47:31;;;;;;;11.93;3.15;;;;;;;;;;5094517;28;20012;-74
2023/06/06 11:49:58;;;;;;;6.68;2.55;;;;;;;;;;5076462;28;20020;-73
2023/06/06 11:52:25;;;;;;;7.13;2.47;;;;;;;;;;5076607;28;20020;-73
2023/06/06 11:55:05;;;;;;;3.03;2.65;;;;;;;;;;5076440;28;20481;-74
2023/06/06 11:57:32;;;;;;;4.23;2.73;;;;;;;;;;5094646;28;20028;-73
2023/06/06 12:00:03;;;;;;;3.78;2.30;;;;;;;;;;5076138;28;20282;-73
2023/06/06 12:02:31;;;;;;;9.80;3.05;;;;;;;;;;5094343;28;20040;-74
2023/06/06 12:04:57;;;;;;;3.78;2.45;;;;;;;;;;5093787;28;20478;-73
2023/06/06 12:07:23;;;;;;;6.35;2.95;;;;;;;;;;5094684;28;20027;-74
2023/06/06 12:10:03;;;;;;;7.03;2.92;;;;;;;;;;5076371;28;20016;-74
2023/06/06 12:12:30;;;;;;;5.25;2.45;;;;;;;;;;5094236;28;20012;-74
2023/06/06 12:15:04;;;;;;;5.55;2.92;;;;;;;;;;5093414;28;20115;-74
2023/06/06 12:17:30;;;;;;;4.20;2.47;;;;;;;;;;5094580;28;20024;-73
2023/06/06 12:19:56;;;;;;;9.77;2.90;;;;;;;;;;5094463;28;20388;-75
2023/06/06 12:22:31;;;;;;;7.07;2.20;;;;;;;;;;5094360;28;20024;-73
2023/06/06 12:24:58;;;;;;;4.93;3.13;;;;;;;;;;5094018;28;20056;-74
2023/06/06 12:27:27;;;;;;;8.15;2.80;;;;;;;;;;5094308;28;20012;-74
2023/06/06 12:29:57;;;;;;;4.37;2.40;;;;;;;;;;5094408;28;20020;-74
2023/06/06 12:32:29;;;;;;;8.65;3.05;;;;;;;;;;5076429;28;20028;-73
2023/06/06 12:35:01;;;;;;;6.28;2.50;;;;;;;;;;5076682;28;20028;-74
2023/06/06 12:37:42;;;;;;;3.45;2.67;;;;;;;;;;5093979;28;20024;-74
2023/06/06 12:40:15;;;;;;;5.43;2.17;;;;;;;;;;5094100;28;20020;-74
2023/06/06 12:42:49;;;;;;;9.63;3.20;;;;;;;;;;5093136;28;20035;-74
2023/06/06 12:45:15;;;;;;;7.28;2.95;;;;;;;;;;5075790;28;20107;-75
2023/06/06 12:47:41;;;;;;;4.40;2.55;;;;;;;;;;5093964;28;20016;-74
2023/06/06 12:50:06;;;;;;;6.47;2.70;;;;;;;;;;5093476;28;20024;-72
2023/06/06 12:52:33;;;;;;;2.65;2.20;;;;;;;;;;5075065;28;20020;-72
2023/06/06 12:55:00;;;;;;;3.40;2.45;;;;;;;;;;5093372;28;20016;-73
2023/06/06 12:57:27;;;;;;;4.30;2.50;;;;;;;;;;5093141;28;20055;-74
2023/06/06 12:59:54;;;;;;;5.07;2.88;;;;;;;;;;5075167;28;20020;-73
2023/06/06 13:02:20;;;;;;;3.53;2.25;;;;;;;;;;5092686;28;20047;-73
2023/06/06 13:04:47;;;;;;;4.10;2.15;;;;;;;;;;5093084;28;20165;-74
2023/06/06 13:07:13;;;;;;;2.80;2.50;;;;;;;;;;5093387;28;20021;-75
2023/06/06 13:09:39;;;;;;;3.90;2.22;;;;;;;;;;5093442;28;20024;-74
2023/06/06 13:12:13;;;;;;;4.00;2.67;;;;;;;;;;5093361;28;20023;-74
2023/06/06 13:14:39;;;;;;;5.68;2.60;;;;;;;;;;5093755;28;20020;-73
2023/06/06 13:17:05;;;;;;;5.20;2.30;;;;;;;;;;5099975;28;20388;-73
2023/06/06 13:19:32;;;;;;;7.25;2.72;;;;;;;;;;5082060;28;20074;-73
2023/06/06 13:22:00;;;;;;;4.28;2.78;;;;;;;;;;5099927;28;20047;-73
2023/06/06 13:24:26;;;;;;;5.90;2.70;;;;;;;;;;5099908;28;20022;-73
2023/06/06 13:26:52;;;;;;;2.80;2.33;;;;;;;;;;5099625;28;20043;-74
2023/06/06 13:29:18;;;;;;;7.47;2.78;;;;;;;;;;5098269;28;20430;-73
2023/06/06 13:31:45;;;;;;;5.97;2.50;;;;;;;;;;5100021;28;20023;-75
2023/06/06 13:34:11;;;;;;;4.20;2.20;;;;;;;;;;5100120;28;20073;-73
2023/06/06 13:36:38;;;;;;;5.40;2.75;;;;;;;;;;5099942;28;20024;-74
2023/06/06 13:39:05;;;;;;;4.25;2.58;;;;;;;;;;5099957;28;20020;-74
2023/06/06 13:41:35;;;;;;;4.68;2.67;;;;;;;;;;5099780;28;20125;-73
2023/06/06 13:44:02;;;;;;;3.42;2.65;;;;;;;;;;5099285;28;20015;-74
2023/06/06 13:46:29;;;;;;;3.08;2.30;;;;;;;;;;5099663;28;20008;-74
2023/06/06 13:48:57;;;;;;;3.17;2.58;;;;;;;;;;5099080;28;20028;-74
2023/06/06 13:51:23;;;;;;;3.63;2.63;;;;;;;;;;5081146;28;20020;-73
2023/06/06 13:53:52;;;;;;;4.85;3.00;;;;;;;;;;5099473;28;20020;-73
2023/06/06 13:56:22;;;;;;;3.13;2.70;;;;;;;;;;5099365;28;20081;-74
2023/06/06 13:58:53;;;;;;;8.50;3.25;;;;;;;;;;5117987;28;20045;-74
2023/06/06 14:01:18;;;;;;;;;;;;;;;;;;5119833;28;20030;-74
2023/06/06 14:03:45;;;;;;;5.07;3.17;;;;;;;;;;5119026;28;19916;-74
2023/06/06 14:06:11;;;;;;;6.97;3.13;;;;;;;;;;5120085;28;20047;-76
2023/06/06 14:08:38;;;;;;;4.68;3.15;;;;;;;;;;5119287;28;20027;-75
2023/06/06 14:11:05;;;;;;;5.05;2.83;;;;;;;;;;5119838;28;20023;-74
2023/06/06 14:13:31;;;;;;;7.13;2.65;;;;;;;;;;5119613;28;20457;-75
2023/06/06 14:15:57;;;;;;;3.60;2.50;;;;;;;;;;5119747;28;20034;-74
2023/06/06 14:18:22;;;;;;;3.45;2.78;;;;;;;;;;5120116;28;20322;-75
2023/06/06 14:21:10;;;;;;;4.50;2.60;;;;;;;;;;5101145;28;20114;-75
2023/06/06 14:23:39;;;;;;;6.68;2.92;;;;;;;;;;5119359;28;20315;-74
2023/06/06 14:26:06;;;;;;;3.33;2.67;;;;;;;;;;5118829;28;20027;-74
2023/06/06 14:28:31;;;;;;;4.00;2.97;;;;;;;;;;5115284;28;20016;-73
2023/06/06 14:30:57;;;;;;;4.85;2.63;;;;;;;;;;5116408;28;20016;-72
2023/06/06 14:33:23;;;;;;;5.30;2.97;;;;;;;;;;5116358;28;20020;-73
2023/06/06 14:35:49;;;;;;;4.97;2.67;;;;;;;;;;5115883;28;20086;-73
2023/06/06 14:38:16;;;;;;;5.95;3.20;;;;;;;;;;5116252;28;20073;-72
2023/06/06 14:40:42;;;;;;;5.13;3.20;;;;;;;;;;5116147;28;20102;-74
2023/06/06 14:43:09;;;;;;;6.72;2.97;;;;;;;;;;5115332;28;20111;-75